createdAt,value
2023-01-01T00:00:22.655Z,102628.31
2023-01-01T00:02:50.007Z,102628.75
2023-01-01T00:05:17.384Z,102626.88
2023-01-01T00:07:44.788Z,102624.03
2023-01-01T00:10:30.837Z,102625.38
2023-01-01T00:12:58.587Z,102625.84
2023-01-01T00:15:27.641Z,102628.59
2023-01-01T00:17:55.620Z,102625.19
2023-01-01T00:20:23.465Z,102617.63
2023-01-01T00:22:55.556Z,102607.50
2023-01-01T00:25:24.295Z,102608.66
2023-01-01T00:27:51.778Z,102623.34
2023-01-01T00:30:19.378Z,102616.50
2023-01-01T00:32:55.342Z,102611.09
2023-01-01T00:35:26.874Z,102613.72
2023-01-01T00:37:55.415Z,102616.38
2023-01-01T00:40:23.144Z,102606.91
2023-01-01T00:42:50.555Z,102615.44
2023-01-01T00:45:21.944Z,102610.72
2023-01-01T00:47:53.868Z,102611.94
2023-01-01T00:50:21.948Z,102611.41
2023-01-01T00:52:49.776Z,102606.88
2023-01-01T00:55:17.170Z,102605.97
2023-01-01T00:57:44.962Z,102603.41
2023-01-01T01:00:13.599Z,102608.66
2023-01-01T01:02:41.752Z,102607.00
2023-01-01T01:05:09.507Z,102609.78
2023-01-01T01:07:37.593Z,102608.06
2023-01-01T01:10:05.470Z,102604.13
2023-01-01T01:12:34.319Z,102610.03
2023-01-01T01:15:01.898Z,102611.25
2023-01-01T01:17:31.143Z,102621.03
2023-01-01T01:19:58.451Z,102618.78
2023-01-01T01:22:28.558Z,102627.50
2023-01-01T01:24:56.826Z,102623.56
2023-01-01T01:27:24.737Z,102614.09
2023-01-01T01:29:52.299Z,102614.22
2023-01-01T01:32:20.509Z,102615.84
2023-01-01T01:34:47.890Z,102614.03
2023-01-01T01:37:15.180Z,102607.56
2023-01-01T01:39:42.914Z,102603.94
2023-01-01T01:42:17.963Z,102605.63
2023-01-01T01:44:46.195Z,102608.91
2023-01-01T01:47:18.658Z,102605.31
2023-01-01T01:49:47.392Z,102598.53
2023-01-01T01:52:15.023Z,102603.75
2023-01-01T01:54:42.683Z,102603.59
2023-01-01T01:57:14.890Z,102602.84
2023-01-01T01:59:44.138Z,102605.44
2023-01-01T02:02:35.395Z,102598.41
2023-01-01T02:05:03.775Z,102600.88
2023-01-01T02:07:31.874Z,102587.31
2023-01-01T02:09:59.682Z,102596.00
2023-01-01T02:12:27.848Z,102584.63
2023-01-01T02:14:55.540Z,102580.56
2023-01-01T02:17:39.324Z,102581.47
2023-01-01T02:20:12.751Z,102582.06
2023-01-01T02:23:04.249Z,102579.03
2023-01-01T02:25:40.998Z,102563.13
2023-01-01T02:28:26.754Z,102560.31
2023-01-01T02:30:55.222Z,102557.78
2023-01-01T02:33:24.801Z,102571.72
2023-01-01T02:35:56.300Z,102563.03
2023-01-01T02:38:28.171Z,102569.81
2023-01-01T02:40:59.632Z,102575.59
2023-01-01T02:43:26.997Z,102576.34
2023-01-01T02:45:54.602Z,102573.06
2023-01-01T02:48:37.246Z,102574.66
2023-01-01T02:51:09.864Z,102573.63
2023-01-01T02:53:41.774Z,102565.09
2023-01-01T02:56:18.854Z,102577.16
2023-01-01T02:59:18.521Z,102573.53
2023-01-01T03:01:57.041Z,102582.91
2023-01-01T03:04:33.739Z,102584.88
2023-01-01T03:07:06.967Z,102585.94
2023-01-01T03:09:40.416Z,102582.91
2023-01-01T03:12:39.717Z,102576.31
2023-01-01T03:15:28.217Z,102579.22
2023-01-01T03:18:00.443Z,102577.56
2023-01-01T03:20:30.074Z,102570.50
2023-01-01T03:23:01.539Z,102563.88
2023-01-01T03:25:31.866Z,102560.31
2023-01-01T03:28:02.663Z,102560.47
2023-01-01T03:30:32.419Z,102562.78
2023-01-01T03:33:08.029Z,102564.53
2023-01-01T03:36:01.654Z,102553.50
2023-01-01T03:38:35.048Z,102555.09
2023-01-01T03:41:05.277Z,102552.69
2023-01-01T03:43:42.009Z,102557.72
2023-01-01T03:46:12.540Z,102560.31
2023-01-01T03:49:03.722Z,102551.06
2023-01-01T03:51:34.533Z,102550.56
2023-01-01T03:54:06.239Z,102552.28
2023-01-01T03:56:53.855Z,102549.59
2023-01-01T03:59:27.323Z,102545.81
2023-01-01T04:01:58.301Z,102548.09
2023-01-01T04:04:27.072Z,102552.13
2023-01-01T04:06:55.242Z,102545.69
2023-01-01T04:09:25.905Z,102541.00
2023-01-01T04:12:04.322Z,102535.56
2023-01-01T04:14:35.946Z,102536.16
2023-01-01T04:17:04.832Z,102537.03
2023-01-01T04:19:32.642Z,102537.25
2023-01-01T04:22:00.500Z,102533.81
2023-01-01T04:24:28.545Z,102543.75
2023-01-01T04:26:56.276Z,102548.63
2023-01-01T04:29:24.330Z,102550.34
2023-01-01T04:31:51.751Z,102549.84
2023-01-01T04:34:19.208Z,102546.63
2023-01-01T04:36:46.701Z,102541.78
2023-01-01T04:39:14.007Z,102543.50
2023-01-01T04:41:41.748Z,102545.41
2023-01-01T04:44:09.064Z,102545.81
2023-01-01T04:46:36.715Z,102545.75
2023-01-01T04:49:04.149Z,102546.22
2023-01-01T04:51:31.511Z,102541.94
2023-01-01T04:53:59.343Z,102544.31
2023-01-01T04:56:26.779Z,102552.53
2023-01-01T04:58:55.571Z,102553.09
2023-01-01T05:01:31.948Z,102549.19
2023-01-01T05:03:59.981Z,102549.25
2023-01-01T05:06:28.912Z,102557.53
2023-01-01T05:08:56.749Z,102559.50
2023-01-01T05:11:25.394Z,102557.38
2023-01-01T05:13:54.107Z,102557.22
2023-01-01T05:16:22.901Z,102560.56
2023-01-01T05:18:50.989Z,102559.44
2023-01-01T05:21:23.252Z,102564.13
2023-01-01T05:23:54.862Z,102558.94
2023-01-01T05:26:24.430Z,102564.91
2023-01-01T05:28:52.203Z,102564.91
2023-01-01T05:31:20.787Z,102559.84
2023-01-01T05:33:49.057Z,102563.28
2023-01-01T05:36:18.241Z,102562.13
2023-01-01T05:38:45.986Z,102556.41
2023-01-01T05:41:14.265Z,102556.72
2023-01-01T05:43:41.690Z,102552.88
2023-01-01T05:46:14.382Z,102558.94
2023-01-01T05:48:42.035Z,102555.09
2023-01-01T05:51:11.096Z,102554.88
2023-01-01T05:53:39.007Z,102561.56
2023-01-01T05:56:07.011Z,102552.47
2023-01-01T05:58:35.255Z,102559.28
2023-01-01T06:01:13.156Z,102558.38
2023-01-01T06:03:41.248Z,102553.03
2023-01-01T06:06:12.513Z,102556.88
2023-01-01T06:08:40.243Z,102558.22
2023-01-01T06:11:10.949Z,102555.19
2023-01-01T06:13:38.615Z,102553.56
2023-01-01T06:16:06.230Z,102547.25
2023-01-01T06:18:34.913Z,102548.91
2023-01-01T06:21:05.575Z,102548.91
2023-01-01T06:23:33.014Z,102552.09
2023-01-01T06:26:29.893Z,102548.38
2023-01-01T06:28:57.752Z,102556.44
2023-01-01T06:31:25.083Z,102564.31
2023-01-01T06:33:52.693Z,102557.06
2023-01-01T06:36:21.547Z,102559.75
2023-01-01T06:38:51.859Z,102557.78
2023-01-01T06:41:20.849Z,102559.44
2023-01-01T06:43:49.003Z,102565.75
2023-01-01T06:46:17.841Z,102569.28
2023-01-01T06:48:45.850Z,102565.91
2023-01-01T06:51:15.419Z,102570.09
2023-01-01T06:53:43.064Z,102571.25
2023-01-01T06:56:10.833Z,102568.41
2023-01-01T06:58:38.503Z,102570.22
2023-01-01T07:01:26.483Z,102571.47
2023-01-01T07:03:58.699Z,102575.44
2023-01-01T07:06:26.780Z,102576.91
2023-01-01T07:08:54.717Z,102574.28
2023-01-01T07:11:22.138Z,102573.38
2023-01-01T07:13:49.464Z,102577.00
2023-01-01T07:16:17.583Z,102562.69
2023-01-01T07:18:46.197Z,102568.34
2023-01-01T07:21:29.249Z,102569.09
2023-01-01T07:24:01.574Z,102573.63
2023-01-01T07:26:30.100Z,102580.38
2023-01-01T07:29:04.670Z,102574.53
2023-01-01T07:31:34.813Z,102576.63
2023-01-01T07:34:02.221Z,102569.03
2023-01-01T07:36:29.666Z,102579.69
2023-01-01T07:38:57.113Z,102570.38
2023-01-01T07:41:24.567Z,102573.75
2023-01-01T07:43:52.526Z,102571.97
2023-01-01T07:46:20.189Z,102581.31
2023-01-01T07:48:47.774Z,102574.38
2023-01-01T07:51:15.519Z,102572.69
2023-01-01T07:53:42.908Z,102578.38
2023-01-01T07:56:10.463Z,102588.13
2023-01-01T07:58:42.336Z,102584.38
2023-01-01T08:01:11.142Z,102580.94
2023-01-01T08:03:39.103Z,102583.38
2023-01-01T08:06:08.067Z,102593.00
2023-01-01T08:08:35.881Z,102592.75
2023-01-01T08:11:04.285Z,102596.97
2023-01-01T08:13:32.257Z,102593.75
2023-01-01T08:16:00.382Z,102587.78
2023-01-01T08:18:27.829Z,102587.97
2023-01-01T08:20:57.509Z,102591.59
2023-01-01T08:23:25.046Z,102594.97
2023-01-01T08:25:52.400Z,102601.75
2023-01-01T08:28:19.855Z,102602.31
2023-01-01T08:30:47.305Z,102602.75
2023-01-01T08:33:14.764Z,102601.53
2023-01-01T08:35:42.778Z,102602.88
2023-01-01T08:38:11.389Z,102598.88
2023-01-01T08:40:39.543Z,102592.19
2023-01-01T08:43:06.864Z,102590.31
2023-01-01T08:45:34.928Z,102591.47
2023-01-01T08:48:02.367Z,102587.63
2023-01-01T08:50:29.688Z,102595.88
2023-01-01T08:52:59.874Z,102594.53
2023-01-01T08:55:27.322Z,102595.41
2023-01-01T08:57:55.059Z,102597.38
2023-01-01T09:00:22.684Z,102598.91
2023-01-01T09:02:50.176Z,102591.28
2023-01-01T09:05:18.108Z,102596.53
2023-01-01T09:07:45.779Z,102598.75
2023-01-01T09:10:13.299Z,102591.09
2023-01-01T09:12:41.220Z,102600.44
2023-01-01T09:15:13.739Z,102596.53
2023-01-01T09:17:41.097Z,102597.97
2023-01-01T09:20:08.794Z,102601.53
2023-01-01T09:22:36.530Z,102610.03
2023-01-01T09:25:04.454Z,102609.31
2023-01-01T09:27:31.823Z,102608.53
2023-01-01T09:29:59.998Z,102612.66
2023-01-01T09:32:27.548Z,102605.81
2023-01-01T09:34:57.093Z,102600.88
2023-01-01T09:37:24.505Z,102598.78
2023-01-01T09:39:52.822Z,102597.25
2023-01-01T09:42:43.153Z,102602.47
2023-01-01T09:45:28.069Z,102598.13
2023-01-01T09:47:58.359Z,102597.34
2023-01-01T09:50:46.471Z,102602.22
2023-01-01T09:53:14.642Z,102607.22
2023-01-01T09:56:11.870Z,102600.69
2023-01-01T09:58:39.717Z,102600.50
2023-01-01T10:01:17.509Z,102594.34
2023-01-01T10:03:57.492Z,102589.41
2023-01-01T10:06:29.213Z,102586.38
2023-01-01T10:09:01.218Z,102579.75
2023-01-01T10:11:31.789Z,102592.47
2023-01-01T10:14:01.700Z,102592.72
2023-01-01T10:16:35.772Z,102588.41
2023-01-01T10:19:08.076Z,102581.78
2023-01-01T10:21:43.510Z,102581.09
2023-01-01T10:24:23.287Z,102567.16
2023-01-01T10:26:53.477Z,102568.28
2023-01-01T10:29:29.943Z,102573.56
2023-01-01T10:31:58.365Z,102564.38
2023-01-01T10:34:32.435Z,102564.59
2023-01-01T10:37:00.806Z,102559.59
2023-01-01T10:39:28.865Z,102557.81
2023-01-01T10:41:57.532Z,102556.72
2023-01-01T10:44:32.612Z,102558.50
2023-01-01T10:47:02.967Z,102559.75
2023-01-01T10:49:30.869Z,102550.34
2023-01-01T10:51:59.534Z,102553.91
2023-01-01T10:54:40.164Z,102550.50
2023-01-01T10:57:19.158Z,102551.00
2023-01-01T10:59:53.564Z,102543.19
2023-01-01T11:02:23.307Z,102537.63
2023-01-01T11:04:52.036Z,102534.56
2023-01-01T11:07:25.898Z,102532.66
2023-01-01T11:10:03.091Z,102529.53
2023-01-01T11:13:04.264Z,102523.09
2023-01-01T11:15:35.583Z,102523.44
2023-01-01T11:18:06.695Z,102528.88
2023-01-01T11:20:34.811Z,102521.47
2023-01-01T11:23:17.648Z,102518.91
2023-01-01T11:25:56.897Z,102511.41
2023-01-01T11:28:24.755Z,102507.34
2023-01-01T11:31:10.988Z,102512.09
2023-01-01T11:33:52.821Z,102503.72
2023-01-01T11:36:21.831Z,102502.47
2023-01-01T11:38:51.678Z,102503.22
2023-01-01T11:41:19.065Z,102506.16
2023-01-01T11:43:47.990Z,102506.63
2023-01-01T11:46:22.438Z,102498.56
2023-01-01T11:48:50.030Z,102490.91
2023-01-01T11:51:29.605Z,102492.81
2023-01-01T11:54:29.197Z,102492.75
2023-01-01T11:57:07.689Z,102497.09
2023-01-01T11:59:46.527Z,102491.50
2023-01-01T12:02:17.210Z,102491.66
2023-01-01T12:04:49.273Z,102485.41
2023-01-01T12:07:25.808Z,102486.03
2023-01-01T12:10:03.159Z,102482.22
2023-01-01T12:12:46.860Z,102481.94
2023-01-01T12:15:20.303Z,102482.41
2023-01-01T12:17:51.996Z,102479.94
2023-01-01T12:20:22.871Z,102477.50
2023-01-01T12:22:50.411Z,102473.53
2023-01-01T12:25:19.992Z,102482.56
2023-01-01T12:27:47.545Z,102474.56
2023-01-01T12:30:25.335Z,102479.28
2023-01-01T12:33:31.098Z,102477.59
2023-01-01T12:36:07.732Z,102473.22
2023-01-01T12:38:35.599Z,102471.09
2023-01-01T12:41:09.294Z,102462.41
2023-01-01T12:43:43.567Z,102462.59
2023-01-01T12:46:11.482Z,102459.53
2023-01-01T12:48:57.815Z,102465.03
2023-01-01T12:51:37.278Z,102454.63
2023-01-01T12:54:42.912Z,102466.06
2023-01-01T12:57:13.087Z,102449.28
2023-01-01T12:59:44.347Z,102459.09
2023-01-01T13:02:19.498Z,102464.59
2023-01-01T13:04:48.011Z,102462.56
2023-01-01T13:07:19.103Z,102464.22
2023-01-01T13:09:48.393Z,102454.88
2023-01-01T13:12:17.218Z,102454.06
2023-01-01T13:14:45.675Z,102459.09
2023-01-01T13:17:22.303Z,102452.91
2023-01-01T13:19:54.936Z,102445.81
2023-01-01T13:22:28.230Z,102448.69
2023-01-01T13:25:16.881Z,102448.00
2023-01-01T13:27:56.791Z,102449.84
2023-01-01T13:30:38.029Z,102455.84
2023-01-01T13:33:26.167Z,102460.16
2023-01-01T13:36:13.024Z,102448.00
2023-01-01T13:38:50.005Z,102450.34
2023-01-01T13:41:26.471Z,102451.97
2023-01-01T13:44:10.544Z,102448.28
2023-01-01T13:46:44.616Z,102435.75
2023-01-01T13:49:30.593Z,102436.50
2023-01-01T13:52:07.577Z,102443.97
2023-01-01T13:54:40.078Z,102455.50
2023-01-01T13:57:07.424Z,102457.66
2023-01-01T13:59:37.803Z,102451.91
2023-01-01T14:02:24.602Z,102451.97
2023-01-01T14:04:59.561Z,102459.59
2023-01-01T14:07:52.842Z,102455.41
2023-01-01T14:10:23.547Z,102459.59
2023-01-01T14:12:52.111Z,102460.94
2023-01-01T14:15:25.480Z,102463.56
2023-01-01T14:17:53.975Z,102464.41
2023-01-01T14:20:23.113Z,102469.31
2023-01-01T14:22:51.419Z,102471.19
2023-01-01T14:25:25.251Z,102463.56
2023-01-01T14:27:54.445Z,102455.53
2023-01-01T14:30:21.971Z,102464.28
2023-01-01T14:32:56.470Z,102463.56
2023-01-01T14:35:23.886Z,102462.94
2023-01-01T14:37:51.535Z,102474.53
2023-01-01T14:40:33.866Z,102471.31
2023-01-01T14:43:05.002Z,102485.75
2023-01-01T14:45:34.544Z,102473.66
2023-01-01T14:48:02.092Z,102482.94
2023-01-01T14:50:31.258Z,102483.09
2023-01-01T14:53:03.128Z,102478.41
2023-01-01T14:55:32.996Z,102481.66
2023-01-01T14:58:01.007Z,102477.97
2023-01-01T15:00:30.077Z,102485.00
2023-01-01T15:03:12.136Z,102478.38
2023-01-01T15:05:40.573Z,102480.53
2023-01-01T15:08:18.664Z,102481.94
2023-01-01T15:10:46.704Z,102481.31
2023-01-01T15:13:19.662Z,102482.97
2023-01-01T15:15:49.698Z,102482.97
2023-01-01T15:18:35.742Z,102491.84
2023-01-01T15:21:10.380Z,102480.97
2023-01-01T15:23:38.379Z,102481.69
2023-01-01T15:26:10.419Z,102484.38
2023-01-01T15:28:38.547Z,102483.97
2023-01-01T15:31:05.940Z,102488.38
2023-01-01T15:33:33.440Z,102485.56
2023-01-01T15:36:03.982Z,102484.69
2023-01-01T15:38:36.925Z,102481.75
2023-01-01T15:41:22.902Z,102488.50
2023-01-01T15:43:50.904Z,102495.34
2023-01-01T15:46:26.117Z,102495.28
2023-01-01T15:48:57.199Z,102491.44
2023-01-01T15:51:26.158Z,102505.38
2023-01-01T15:53:58.658Z,102507.44
2023-01-01T15:56:31.039Z,102508.34
2023-01-01T15:59:06.837Z,102509.84
2023-01-01T16:01:37.975Z,102503.03
2023-01-01T16:04:10.299Z,102500.66
2023-01-01T16:06:44.992Z,102499.00
2023-01-01T16:09:16.470Z,102493.09
2023-01-01T16:11:44.292Z,102500.72
2023-01-01T16:14:11.720Z,102505.03
2023-01-01T16:16:40.532Z,102500.66
2023-01-01T16:19:14.246Z,102502.25
2023-01-01T16:21:41.741Z,102500.34
2023-01-01T16:24:18.691Z,102504.22
2023-01-01T16:26:47.290Z,102506.59
2023-01-01T16:29:15.133Z,102507.06
2023-01-01T16:31:43.494Z,102509.56
2023-01-01T16:34:13.352Z,102508.63
2023-01-01T16:36:42.033Z,102510.25
2023-01-01T16:39:10.438Z,102506.94
2023-01-01T16:41:40.089Z,102503.94
2023-01-01T16:44:09.782Z,102511.38
2023-01-01T16:46:37.340Z,102503.09
2023-01-01T16:49:05.293Z,102508.47
2023-01-01T16:51:34.740Z,102516.69
2023-01-01T16:54:02.606Z,102517.34
2023-01-01T16:56:30.123Z,102523.59
2023-01-01T16:59:02.597Z,102518.88
2023-01-01T17:01:31.182Z,102515.66
2023-01-01T17:03:59.724Z,102515.66
2023-01-01T17:06:27.151Z,102520.25
2023-01-01T17:08:55.104Z,102522.47
2023-01-01T17:11:25.058Z,102519.22
2023-01-01T17:13:53.065Z,102524.13
2023-01-01T17:16:26.944Z,102520.53
2023-01-01T17:21:45.884Z,102515.22
2023-01-01T17:24:14.319Z,102525.41
2023-01-01T17:26:42.047Z,102526.63
2023-01-01T17:29:09.921Z,102527.06
2023-01-01T17:31:38.362Z,102530.31
2023-01-01T17:34:05.759Z,102530.31
2023-01-01T17:36:33.652Z,102530.56
2023-01-01T17:39:01.043Z,102532.59
2023-01-01T17:41:28.369Z,102529.81
2023-01-01T17:43:56.456Z,102523.22
2023-01-01T17:46:33.988Z,102536.53
2023-01-01T17:49:01.564Z,102535.91
2023-01-01T17:51:29.472Z,102533.22
2023-01-01T17:53:57.451Z,102527.94
2023-01-01T17:56:25.132Z,102532.97
2023-01-01T17:58:53.981Z,102537.19
2023-01-01T18:01:21.859Z,102540.09
2023-01-01T18:03:51.223Z,102534.84
2023-01-01T18:06:18.908Z,102536.28
2023-01-01T18:08:46.387Z,102533.59
2023-01-01T18:11:14.034Z,102535.31
2023-01-01T18:13:41.396Z,102529.84
2023-01-01T18:16:10.182Z,102529.06
2023-01-01T18:18:38.808Z,102537.53
2023-01-01T18:21:07.281Z,102534.56
2023-01-01T18:23:35.198Z,102532.19
2023-01-01T18:26:04.041Z,102536.41
2023-01-01T18:28:32.194Z,102544.06
2023-01-01T18:31:12.235Z,102543.63
2023-01-01T18:33:40.187Z,102543.63
2023-01-01T18:36:12.131Z,102550.78
2023-01-01T18:38:41.532Z,102543.16
2023-01-01T18:41:23.624Z,102541.84
2023-01-01T18:43:51.712Z,102548.47
2023-01-01T18:46:19.946Z,102539.91
2023-01-01T18:48:47.383Z,102543.03
2023-01-01T18:51:18.657Z,102553.91
2023-01-01T18:53:46.456Z,102553.91
2023-01-01T18:56:14.785Z,102557.13
2023-01-01T18:58:46.875Z,102554.94
2023-01-01T19:01:18.609Z,102562.50
2023-01-01T19:03:48.693Z,102559.59
2023-01-01T19:06:25.533Z,102558.66
2023-01-01T19:09:16.260Z,102559.00
2023-01-01T19:11:44.556Z,102557.75
2023-01-01T19:14:23.075Z,102555.13
2023-01-01T19:16:51.861Z,102557.25
2023-01-01T19:19:24.083Z,102568.06
2023-01-01T19:21:57.523Z,102562.94
2023-01-01T19:24:27.384Z,102554.25
2023-01-01T19:27:18.120Z,102565.72
2023-01-01T19:29:46.319Z,102561.28
2023-01-01T19:32:13.708Z,102551.31
2023-01-01T19:34:41.705Z,102554.13
2023-01-01T19:37:09.866Z,102562.91
2023-01-01T19:39:38.028Z,102557.00
2023-01-01T19:42:07.146Z,102566.53
2023-01-01T19:44:35.725Z,102569.28
2023-01-01T19:47:07.810Z,102576.59
2023-01-01T19:49:35.190Z,102571.59
2023-01-01T19:52:03.778Z,102565.38
2023-01-01T19:54:31.222Z,102569.53
2023-01-01T19:56:58.781Z,102565.81
2023-01-01T19:59:33.084Z,102571.78
2023-01-01T20:04:50.436Z,102574.47
2023-01-01T20:07:18.383Z,102574.44
2023-01-01T20:09:45.830Z,102573.47
2023-01-01T20:12:13.612Z,102571.53
2023-01-01T20:14:41.715Z,102571.53
2023-01-01T20:17:09.177Z,102565.69
2023-01-01T20:19:36.741Z,102575.63
2023-01-01T20:22:17.711Z,102585.59
2023-01-01T20:24:45.237Z,102590.31
2023-01-01T20:27:13.039Z,102586.25
2023-01-01T20:29:40.482Z,102586.31
2023-01-01T20:32:15.450Z,102581.97
2023-01-01T20:34:43.629Z,102585.34
2023-01-01T20:37:29.569Z,102587.84
2023-01-01T20:39:56.989Z,102584.06
2023-01-01T20:42:24.825Z,102578.09
2023-01-01T20:44:52.216Z,102584.84
2023-01-01T20:47:19.812Z,102586.38
2023-01-01T20:49:47.637Z,102584.50
2023-01-01T20:52:16.264Z,102580.16
2023-01-01T20:54:43.916Z,102586.16
2023-01-01T20:57:11.589Z,102592.63
2023-01-01T20:59:39.338Z,102588.38
2023-01-01T21:02:11.066Z,102591.91
2023-01-01T21:04:39.686Z,102601.09
2023-01-01T21:07:12.262Z,102590.06
2023-01-01T21:09:41.288Z,102586.47
2023-01-01T21:12:09.384Z,102589.31
2023-01-01T21:14:37.030Z,102591.63
2023-01-01T21:17:22.161Z,102584.91
2023-01-01T21:19:50.700Z,102580.75
2023-01-01T21:22:18.314Z,102580.84
2023-01-01T21:24:51.566Z,102579.22
2023-01-01T21:27:27.381Z,102574.09
2023-01-01T21:29:57.634Z,102584.81
2023-01-01T21:32:36.185Z,102584.25
2023-01-01T21:35:14.809Z,102589.31
2023-01-01T21:37:48.038Z,102578.47
2023-01-01T21:40:21.562Z,102590.38
2023-01-01T21:42:49.584Z,102588.16
2023-01-01T21:45:19.110Z,102594.06
2023-01-01T21:47:46.946Z,102593.09
2023-01-01T21:50:24.367Z,102588.66
2023-01-01T21:52:57.369Z,102594.34
2023-01-01T21:55:50.351Z,102588.94
2023-01-01T21:58:37.456Z,102590.84
2023-01-01T22:01:31.228Z,102592.91
2023-01-01T22:04:02.441Z,102585.63
2023-01-01T22:06:41.851Z,102587.75
2023-01-01T22:09:12.803Z,102587.47
2023-01-01T22:11:40.292Z,102588.25
2023-01-01T22:14:13.010Z,102583.97
2023-01-01T22:16:41.067Z,102591.84
2023-01-01T22:19:19.652Z,102588.41
2023-01-01T22:21:48.237Z,102599.31
2023-01-01T22:24:27.576Z,102601.38
2023-01-01T22:26:56.307Z,102591.31
2023-01-01T22:29:26.909Z,102592.66
2023-01-01T22:31:59.281Z,102593.53
2023-01-01T22:34:27.185Z,102601.66
2023-01-01T22:36:54.884Z,102597.50
2023-01-01T22:39:28.422Z,102600.09
2023-01-01T22:41:57.065Z,102589.00
2023-01-01T22:44:26.469Z,102583.84
2023-01-01T22:46:58.651Z,102585.59
2023-01-01T22:49:38.341Z,102574.25
2023-01-01T22:52:07.722Z,102577.09
2023-01-01T22:54:35.067Z,102572.03
2023-01-01T22:57:02.964Z,102579.84
2023-01-01T22:59:31.092Z,102581.00
2023-01-01T23:02:00.039Z,102576.84
2023-01-01T23:04:27.777Z,102579.69
2023-01-01T23:06:55.185Z,102579.19
2023-01-01T23:09:24.106Z,102570.66
2023-01-01T23:11:53.318Z,102573.72
2023-01-01T23:14:39.508Z,102571.09
2023-01-01T23:17:07.633Z,102565.75
2023-01-01T23:19:35.435Z,102560.53
2023-01-01T23:22:03.510Z,102567.31
2023-01-01T23:24:31.576Z,102553.53
2023-01-01T23:27:00.563Z,102557.06
2023-01-01T23:29:32.481Z,102555.94
2023-01-01T23:32:00.921Z,102560.84
2023-01-01T23:34:28.760Z,102551.69
2023-01-01T23:36:56.494Z,102549.31
2023-01-01T23:39:23.851Z,102549.41
2023-01-01T23:41:51.898Z,102542.41
2023-01-01T23:44:19.854Z,102547.06
2023-01-01T23:46:47.380Z,102546.19
2023-01-01T23:49:15.402Z,102549.47
2023-01-01T23:51:43.428Z,102540.94
2023-01-01T23:54:11.557Z,102546.50
2023-01-01T23:56:38.913Z,102547.16
2023-01-01T23:59:07.197Z,102540.56
